Startpagina
METAR-TAF:

METAR-TAF

Vliegvelden :

Piešťany, Slowakije

breedte: 48-37-30N, lengte: 017-49-43E, hoogte: 163 m

Actueel weer

Dit bericht is 37 minuten geleden gemaakt, om 23:00 UTC
Wind 7 kt uit het noorden
Temperatuur 20°C
Vochtigheid 68%
Druk 1019 hPa
Zicht 10 km of meer

METAR: LZPP 182300Z AUTO 01007KT 9999 NCD 20/14 Q1019

Tijdstip: 01:37 (23:37 UTC)

Verwachting

Dit bericht is 6 uur en het 37 minuten geleden gemaakt, om 17:00 UTC
Verwachting geldig van 18 om 18 UTC tot 19 om 03 UTC
Wind 8 kt uit het noorden
Zicht 10 km of meer
geen wolken onder 1500 m en geen cumulonimbus
Wijzigt naar
van 18 om 21 UTC tot 18 om 23 UTC
Wind 4 kt uit het noordnoordoosten

TAF: LZPP 181700Z 1818/1903 01008KT CAVOK BECMG 1821/1823 03004KT

Waarnemingen en weersverwachtingen van meer dan 4000 vliegvelden (METAR en TAF).

De beschikbare stations zijn de gele en rode punten op de kaart.

Ga met uw muis naar het station om de naam te zien.

Klik dan om waarnemingen en weersverwachtingen te zien.

kaart wijzigen: klik op de groene knoppen met een zwart kruis om in te zoomen, op de groene knop met een streepje om uit te zoomen of op de groene pijlen voor aangrenzende kaarten.


METAR-TAF: